Latest Coastal Weather Observations for Marion Reef

IDQ60701

Issued at 5:52 pm EST Wednesday 8 February 2023 (issued every 10 minutes, with the page automatically refreshed every 10 minutes)

About coastal observations | Map of coastal stations | Coastal observations for QLD | Marine services | Other Formats
Station Details ID: 200704 Name: MARION REEF Lat: -19.10 Lon: 152.39 Height: 2.0 m
Data from the previous 72 hours. | See also: Recent months for locations in Queensland
Date/Time
EST
Wind Sea
Height
m
Swell Vis
km
Cloud Weather Temp
°C
Press
MSL
hPa
Rain since
9am
mm
Dir  Spd
kts
Gust
kts
Height
m
Period
s
Dir
08/05:30pm E 27 34 - - - - - - - 27.0 999.1 -
08/05:00pm ESE 24 30 - - - - - - - 28.3 998.9 -
08/04:30pm ESE 26 31 - - - - - - - 28.4 998.9 -
08/04:00pm ESE 25 30 - - - - - - - 28.4 998.9 -
08/03:30pm ESE 27 31 - - - - - - - 28.7 998.9 -
08/03:00pm ESE 26 30 - - - - - - - 28.5 999.2 -
08/02:30pm ESE 25 29 - - - - - - - 28.6 999.6 -
08/02:00pm ESE 25 29 - - - - - - - 28.3 999.9 -
08/01:30pm ESE 26 30 - - - - - - - 28.2 1000.0 -
08/01:00pm ESE 24 29 - - - - - - - 28.5 1000.3 -
08/12:30pm ESE 25 29 - - - - - - - 28.4 1000.7 -
08/12:00pm ESE 25 29 - - - - - - - 28.6 1001.0 -
08/11:30am ESE 23 28 - - - - - - - 28.5 1001.4 -
08/11:00am ESE 23 28 - - - - - - - 28.5 1001.7 -
08/10:30am ESE 23 26 - - - - - - - 28.4 1002.2 -
08/10:00am ESE 26 30 - - - - - - - 28.4 1002.4 -
08/09:30am ESE 25 31 - - - - - - - 28.4 1002.5 -
08/09:00am ESE 27 32 - - - - - - - 28.4 1002.7 -
08/08:30am ESE 27 31 - - - - - - - 28.3 1002.4 -
08/08:00am ESE 27 31 - - - - - - - 28.2 1002.3 -
08/07:30am ESE 28 34 - - - - - - - 28.4 1002.2 -
08/07:00am ESE 27 32 - - - - - - - 28.2 1001.9 -
08/06:30am ESE 26 31 - - - - - - - 28.2 1002.1 -
08/06:00am ESE 26 30 - - - - - - - 27.5 1001.9 -
08/05:36am ESE 26 36 - - - - - - - 27.3 1001.8 -
08/05:30am ESE 26 32 - - - - - - - 27.8 1001.7 -
08/05:00am ESE 26 33 - - - - - - - 28.0 1001.5 -
08/04:30am ESE 27 33 - - - - - - - 28.3 1001.4 -
08/04:00am ESE 28 33 - - - - - - - 28.3 1001.4 -
08/03:30am SE 25 29 - - - - - - - 28.3 1001.6 -
08/03:00am SE 25 31 - - - - - - - 28.3 1001.7 -
08/02:30am SE 25 30 - - - - - - - 28.2 1002.1 -
08/02:00am ESE 27 31 - - - - - - - 28.2 1002.6 -
08/01:30am ESE 25 29 - - - - - - - 28.4 1002.8 -
08/01:00am SE 26 30 - - - - - - - 28.4 1003.3 -
08/12:30am ESE 26 30 - - - - - - - 28.5 1003.4 -
08/12:00am ESE 25 29 - - - - - - - 28.5 1004.0 -
 
Date/Time
EST
Wind Sea
Height
m
Swell Vis
km
Cloud Weather Temp
°C
Press
MSL
hPa
Rain since
9am
mm
Dir  Spd
kts
Gust
kts
Height
m
Period
s
Dir
07/11:30pm ESE 25 30 - - - - - - - 28.4 1004.5 -
07/11:00pm ESE 25 29 - - - - - - - 28.5 1004.8 -
07/10:30pm SE 23 28 - - - - - - - 28.3 1005.1 -
07/10:00pm SE 23 28 - - - - - - - 28.3 1005.0 -
07/09:30pm ESE 24 29 - - - - - - - 28.4 1005.0 -
07/09:00pm SE 24 28 - - - - - - - 28.3 1004.8 -
07/08:30pm SE 22 26 - - - - - - - 28.4 1005.1 -
07/08:00pm SE 23 28 - - - - - - - 28.0 1004.9 -
07/07:30pm SE 25 28 - - - - - - - 27.7 1004.6 -
07/07:00pm SE 27 31 - - - - - - - 27.1 1004.3 -
07/06:30pm SE 23 28 - - - - - - - 27.5 1004.1 -
07/06:00pm SE 25 30 - - - - - - - 28.3 1003.6 -
07/05:30pm SE 24 27 - - - - - - - 28.6 1003.6 -
07/05:00pm SE 25 31 - - - - - - - 28.3 1003.2 -
07/04:30pm SE 23 28 - - - - - - - 28.7 1003.4 -
07/04:00pm SE 23 27 - - - - - - - 28.6 1003.5 -
07/03:30pm SE 23 26 - - - - - - - 28.4 1003.7 -
07/03:00pm SE 24 28 - - - - - - - 28.5 1003.6 -
07/02:30pm SE 24 28 - - - - - - - 28.6 1003.7 -
07/02:00pm SE 24 28 - - - - - - - 28.5 1003.6 -
07/01:30pm SE 23 27 - - - - - - - 28.4 1003.8 -
07/01:00pm SE 23 27 - - - - - - - 28.3 1004.1 -
07/12:30pm SE 23 26 - - - - - - - 28.1 1004.4 -
07/12:00pm SE 24 28 - - - - - - - 28.2 1004.7 -
07/11:30am SE 22 27 - - - - - - - 27.6 1005.3 -
07/11:00am ESE 25 30 - - - - - - - 27.5 1005.7 -
07/10:30am ESE 24 28 - - - - - - - 28.4 1005.7 -
07/10:00am SE 23 27 - - - - - - - 28.3 1005.7 -
07/09:30am ESE 24 28 - - - - - - - 27.9 1005.8 -
07/09:00am SE 21 25 - - - - - - - 27.4 1006.0 -
07/08:30am ESE 25 31 - - - - - - - 27.2 1005.9 -
07/08:00am SE 24 28 - - - - - - - 27.6 1005.7 -
07/07:30am ESE 24 27 - - - - - - - 27.2 1005.7 -
07/07:00am SE 24 29 - - - - - - - 28.0 1005.4 -
07/06:30am SE 24 29 - - - - - - - 28.2 1005.2 -
07/06:00am SE 23 29 - - - - - - - 27.9 1005.0 -
07/05:30am SE 23 26 - - - - - - - 28.0 1004.6 -
07/05:00am SE 23 27 - - - - - - - 28.2 1004.6 -
07/04:30am SE 24 28 - - - - - - - 28.1 1004.6 -
07/04:00am SE 22 26 - - - - - - - 27.5 1004.6 -
07/03:30am SSE 21 25 - - - - - - - 28.0 1004.4 -
07/03:00am SSE 21 26 - - - - - - - 28.2 1004.4 -
07/02:30am SE 23 26 - - - - - - - 28.1 1004.7 -
07/02:00am SE 22 25 - - - - - - - 28.3 1005.0 -
07/01:30am SE 21 23 - - - - - - - 28.3 1005.3 -
07/01:00am SE 20 23 - - - - - - - 28.3 1005.7 -
07/12:30am SE 18 20 - - - - - - - 28.3 1006.4 -
07/12:00am SE 23 27 - - - - - - - 28.3 1007.0 -
 
Date/Time
EST
Wind Sea
Height
m
Swell Vis
km
Cloud Weather Temp
°C
Press
MSL
hPa
Rain since
9am
mm
Dir  Spd
kts
Gust
kts
Height
m
Period
s
Dir
06/11:30pm SE 23 27 - - - - - - - 28.6 1007.4 -
06/11:00pm SE 23 27 - - - - - - - 28.6 1007.6 -
06/10:30pm SE 23 27 - - - - - - - 28.5 1007.7 -
06/10:00pm SE 21 25 - - - - - - - 28.5 1007.7 -
06/09:30pm SE 22 27 - - - - - - - 28.6 1007.7 -
06/09:00pm SE 22 26 - - - - - - - 28.3 1007.3 -
06/08:30pm SE 22 26 - - - - - - - 28.4 1007.3 -
06/08:00pm SE 22 26 - - - - - - - 28.4 1007.3 -
06/07:30pm SE 22 25 - - - - - - - 28.4 1007.2 -
06/07:00pm SE 22 26 - - - - - - - 28.6 1007.0 -
06/06:30pm SE 22 24 - - - - - - - 28.4 1006.9 -
06/06:00pm SE 22 26 - - - - - - - 28.5 1006.5 -
06/05:30pm SE 21 25 - - - - - - - 28.5 1006.4 -
06/05:00pm SE 22 25 - - - - - - - 28.6 1006.1 -
06/04:30pm SE 20 23 - - - - - - - 28.5 1006.1 -
06/04:00pm SSE 20 23 - - - - - - - 28.5 1006.3 -
06/03:30pm SSE 21 23 - - - - - - - 28.6 1006.4 -
06/03:00pm SSE 18 22 - - - - - - - 28.7 1006.7 -
06/02:30pm SSE 19 22 - - - - - - - 28.7 1007.0 -
06/02:00pm SE 18 21 - - - - - - - 28.7 1007.1 -
06/01:30pm SE 18 20 - - - - - - - 28.6 1007.4 -
06/01:00pm SE 17 20 - - - - - - - 28.5 1007.7 -
06/12:30pm SE 19 22 - - - - - - - 28.6 1008.0 -
06/12:00pm SE 19 22 - - - - - - - 28.5 1008.4 -
06/11:30am SE 17 19 - - - - - - - 28.4 1008.6 -
06/11:00am SE 17 21 - - - - - - - 28.3 1009.0 -
06/10:30am SE 18 21 - - - - - - - 28.5 1009.5 -
06/10:00am SE 21 23 - - - - - - - 28.5 1009.5 -
06/09:30am SE 19 22 - - - - - - - 28.5 1009.6 -
06/09:00am SE 19 22 - - - - - - - 28.7 1009.6 -
06/08:30am SE 18 21 - - - - - - - 28.4 1009.5 -
06/08:00am SE 17 19 - - - - - - - 28.5 1009.2 -
06/07:30am ESE 17 19 - - - - - - - 28.4 1009.0 -
06/07:00am SE 16 19 - - - - - - - 28.4 1008.9 -
06/06:30am SE 18 20 - - - - - - - 28.4 1008.6 -
06/06:00am ESE 18 21 - - - - - - - 28.3 1008.4 -
06/05:30am ESE 17 20 - - - - - - - 28.2 1007.9 -
06/05:00am ESE 17 19 - - - - - - - 28.3 1007.7 -
06/04:30am ESE 19 21 - - - - - - - 28.4 1007.4 -
06/04:00am ESE 18 21 - - - - - - - 28.3 1007.2 -
06/03:30am E 17 20 - - - - - - - 28.3 1007.5 -
06/03:00am E 18 21 - - - - - - - 28.3 1007.6 -
06/02:30am E 19 22 - - - - - - - 28.4 1007.5 -
06/02:00am ESE 18 20 - - - - - - - 28.4 1007.5 -
06/01:30am ESE 17 19 - - - - - - - 28.4 1007.8 -
06/01:00am ESE 17 20 - - - - - - - 28.5 1008.0 -
06/12:30am E 17 20 - - - - - - - 28.5 1008.2 -
06/12:00am E 18 21 - - - - - - - 28.6 1008.4 -
 
Date/Time
EST
Wind Sea
Height
m
Swell Vis
km
Cloud Weather Temp
°C
Press
MSL
hPa
Rain since
9am
mm
Dir  Spd
kts
Gust
kts
Height
m
Period
s
Dir
05/11:30pm E 20 23 - - - - - - - 28.7 1008.5 -
05/11:00pm E 19 22 - - - - - - - 28.7 1008.7 -
05/10:30pm E 17 21 - - - - - - - 28.8 1008.9 -
05/10:00pm E 16 17 - - - - - - - 28.9 1008.9 -
05/09:30pm ESE 16 19 - - - - - - - 28.9 1008.5 -
05/09:00pm ESE 16 18 - - - - - - - 28.8 1008.4 -
05/08:30pm ESE 15 17 - - - - - - - 29.0 1008.2 -
05/08:00pm E 16 18 - - - - - - - 29.1 1008.2 -
05/07:30pm ESE 15 18 - - - - - - - 28.9 1008.1 -
05/07:00pm ESE 16 19 - - - - - - - 29.0 1008.0 -
05/06:30pm E 17 19 - - - - - - - 29.0 1007.5 -
05/06:00pm ESE 17 19 - - - - - - - 29.0 1007.1 -

Other formats

Comma delimited format used in spreadsheet applications
http://www.bom.gov.au/fwo/IDQ60701/IDQ60701.94298.axf

JavaScript Object Notation format (JSON) in row-major order
http://www.bom.gov.au/fwo/IDQ60701/IDQ60701.94298.json

Data quality

Most of these data are generated automatically and are frequently updated. Quality checks on data are not normally performed. It is possible for incorrect values to appear. Refer to information at About Latest Weather Observations and please check the disclaimer before using these data.